createdAt,value
2017-03-01T00:00:37.472Z,0
2017-03-01T00:01:37.478Z,0
2017-03-01T00:02:37.499Z,0
2017-03-01T00:03:37.511Z,0
2017-03-01T00:04:37.518Z,0
2017-03-01T00:05:37.536Z,0
2017-03-01T00:06:37.560Z,0
2017-03-01T00:07:37.580Z,0
2017-03-01T00:08:37.597Z,0
2017-03-01T00:09:37.615Z,0
2017-03-01T00:10:37.618Z,0
2017-03-01T00:11:37.636Z,0
2017-03-01T00:12:37.648Z,0
2017-03-01T00:13:37.659Z,0
2017-03-01T00:14:37.678Z,0
2017-03-01T00:15:37.712Z,0
2017-03-01T00:16:37.333Z,0
2017-03-01T00:17:37.327Z,0
2017-03-01T00:18:37.755Z,0
2017-03-01T00:19:37.754Z,0
2017-03-01T00:20:37.762Z,0
2017-03-01T00:21:37.790Z,0
2017-03-01T00:22:37.801Z,0
2017-03-01T00:23:37.836Z,0
2017-03-01T00:24:37.834Z,0
2017-03-01T00:25:37.839Z,0
2017-03-01T00:26:37.469Z,0
2017-03-01T00:27:37.873Z,0
2017-03-01T00:28:37.478Z,0
2017-03-01T00:29:38.082Z,0
2017-03-01T00:30:38.094Z,0
2017-03-01T00:31:38.003Z,0
2017-03-01T00:32:38.095Z,0
2017-03-01T00:33:38.102Z,0
2017-03-01T00:34:38.126Z,0
2017-03-01T00:35:37.723Z,0
2017-03-01T00:36:38.090Z,0
2017-03-01T00:37:38.236Z,0
2017-03-01T00:38:38.238Z,0
2017-03-01T00:39:38.461Z,0
2017-03-01T00:40:37.737Z,0
2017-03-01T00:41:37.745Z,0
2017-03-01T00:42:38.279Z,0
2017-03-01T00:43:38.173Z,0
2017-03-01T00:44:38.222Z,0
2017-03-01T00:45:38.248Z,0
2017-03-01T00:46:38.258Z,0
2017-03-01T00:47:37.767Z,0
2017-03-01T00:48:38.322Z,0
2017-03-01T00:49:38.198Z,0
2017-03-01T00:50:38.323Z,0
2017-03-01T00:51:38.351Z,0
2017-03-01T00:52:38.245Z,0
2017-03-01T00:53:38.354Z,0
2017-03-01T00:54:38.378Z,0
2017-03-01T00:55:38.302Z,0
2017-03-01T00:56:38.417Z,0
2017-03-01T00:57:38.309Z,0
2017-03-01T00:58:38.432Z,0
2017-03-01T00:59:38.360Z,0
2017-03-01T01:00:38.357Z,0
2017-03-01T01:01:38.377Z,0
2017-03-01T01:02:37.989Z,0
2017-03-01T01:03:38.413Z,0
2017-03-01T01:04:38.014Z,0
2017-03-01T01:05:38.439Z,0
2017-03-01T01:06:38.458Z,0
2017-03-01T01:07:38.460Z,0
2017-03-01T01:08:38.467Z,0
2017-03-01T01:09:38.502Z,0
2017-03-01T01:10:38.509Z,0
2017-03-01T01:11:38.118Z,0
2017-03-01T01:12:38.140Z,0
2017-03-01T01:13:38.536Z,0
2017-03-01T01:14:38.550Z,0
2017-03-01T01:15:38.563Z,0
2017-03-01T01:16:38.584Z,0
2017-03-01T01:17:38.590Z,0
2017-03-01T01:18:38.622Z,0
2017-03-01T01:19:38.636Z,0
2017-03-01T01:20:38.664Z,0
2017-03-01T01:21:38.687Z,0
2017-03-01T01:22:38.818Z,0
2017-03-01T01:23:37.905Z,0
2017-03-01T01:24:38.313Z,0
2017-03-01T01:25:38.819Z,0
2017-03-01T01:26:38.819Z,0
2017-03-01T01:27:38.827Z,0
2017-03-01T01:28:38.836Z,0
2017-03-01T01:29:38.845Z,0
2017-03-01T01:30:38.852Z,0
2017-03-01T01:31:38.863Z,0
2017-03-01T01:32:38.037Z,0
2017-03-01T01:33:38.448Z,0
2017-03-01T01:34:38.882Z,0
2017-03-01T01:35:38.471Z,0
2017-03-01T01:36:38.484Z,0
2017-03-01T01:37:38.953Z,0
2017-03-01T01:38:38.962Z,0
2017-03-01T01:39:38.548Z,0
2017-03-01T01:40:38.982Z,0
2017-03-01T01:41:38.987Z,0
2017-03-01T01:42:38.988Z,0
2017-03-01T01:43:38.998Z,0
2017-03-01T01:44:38.193Z,0
2017-03-01T01:45:39.095Z,0
2017-03-01T01:46:38.231Z,0
2017-03-01T01:47:38.639Z,0
2017-03-01T01:48:39.099Z,0
2017-03-01T01:49:38.685Z,0
2017-03-01T01:50:38.794Z,0
2017-03-01T01:51:38.826Z,0
2017-03-01T01:52:39.135Z,0
2017-03-01T01:53:38.810Z,0
2017-03-01T01:54:39.153Z,0
2017-03-01T01:55:39.164Z,0
2017-03-01T01:56:39.174Z,0
2017-03-01T01:57:38.782Z,0
2017-03-01T01:58:38.799Z,0
2017-03-01T01:59:39.228Z,0
2017-03-01T02:00:38.843Z,0
2017-03-01T02:01:38.043Z,0
2017-03-01T02:02:38.863Z,0
2017-03-01T02:03:39.275Z,0
2017-03-01T02:04:39.272Z,0
2017-03-01T02:05:39.286Z,0
2017-03-01T02:06:38.507Z,0
2017-03-01T02:07:39.343Z,0
2017-03-01T02:08:38.560Z,0
2017-03-01T02:09:38.951Z,0
2017-03-01T02:10:38.973Z,0
2017-03-01T02:11:39.392Z,0
2017-03-01T02:12:39.390Z,0
2017-03-01T02:13:39.006Z,0
2017-03-01T02:14:39.426Z,0
2017-03-01T02:15:39.060Z,0
2017-03-01T02:16:39.072Z,0
2017-03-01T02:17:39.459Z,0
2017-03-01T02:18:39.487Z,0
2017-03-01T02:19:39.490Z,0
2017-03-01T02:20:39.107Z,0
2017-03-01T02:21:39.521Z,0
2017-03-01T02:22:39.153Z,0
2017-03-01T02:23:39.547Z,0
2017-03-01T02:24:39.564Z,0
2017-03-01T02:25:39.592Z,0
2017-03-01T02:26:39.614Z,0
2017-03-01T02:27:39.627Z,0
2017-03-01T02:28:39.628Z,0
2017-03-01T02:29:39.642Z,0
2017-03-01T02:30:39.654Z,0
2017-03-01T02:31:39.685Z,0
2017-03-01T02:32:39.274Z,0
2017-03-01T02:33:39.689Z,0
2017-03-01T02:34:39.709Z,0
2017-03-01T02:35:39.317Z,0
2017-03-01T02:36:39.350Z,0
2017-03-01T02:37:39.353Z,0
2017-03-01T02:38:39.753Z,0
2017-03-01T02:39:39.771Z,0
2017-03-01T02:40:39.417Z,0
2017-03-01T02:41:39.406Z,0
2017-03-01T02:42:39.436Z,0
2017-03-01T02:43:39.839Z,0
2017-03-01T02:44:39.845Z,0
2017-03-01T02:45:39.842Z,0
2017-03-01T02:46:39.877Z,0
2017-03-01T02:47:39.883Z,0
2017-03-01T02:48:39.908Z,0
2017-03-01T02:49:39.917Z,0
2017-03-01T02:50:39.931Z,0
2017-03-01T02:51:39.934Z,0
2017-03-01T02:52:39.976Z,0
2017-03-01T02:53:39.585Z,0
2017-03-01T02:54:39.985Z,0
2017-03-01T02:55:40.012Z,0
2017-03-01T02:56:39.621Z,0
2017-03-01T02:57:40.043Z,0
2017-03-01T02:58:40.035Z,0
2017-03-01T02:59:40.049Z,0
2017-03-01T03:00:40.067Z,0
2017-03-01T03:01:40.183Z,0
2017-03-01T03:02:40.187Z,0
2017-03-01T03:03:40.367Z,0
2017-03-01T03:04:40.249Z,0
2017-03-01T03:05:40.292Z,0
2017-03-01T03:06:40.257Z,0
2017-03-01T03:07:40.259Z,0
2017-03-01T03:08:40.404Z,0
2017-03-01T03:09:40.399Z,0
2017-03-01T03:10:40.420Z,0
2017-03-01T03:11:40.056Z,0
2017-03-01T03:12:40.462Z,0
2017-03-01T03:13:40.460Z,0
2017-03-01T03:14:40.463Z,0
2017-03-01T03:15:40.065Z,0
2017-03-01T03:16:40.077Z,0
2017-03-01T03:17:40.460Z,0
2017-03-01T03:18:40.455Z,0
2017-03-01T03:19:40.649Z,0
2017-03-01T03:20:40.471Z,0
2017-03-01T03:21:40.084Z,0
2017-03-01T03:22:40.532Z,0
2017-03-01T03:23:40.129Z,0
2017-03-01T03:24:40.564Z,0
2017-03-01T03:25:40.160Z,0
2017-03-01T03:26:40.555Z,0
2017-03-01T03:27:40.565Z,0
2017-03-01T03:28:40.201Z,0
2017-03-01T03:29:40.652Z,0
2017-03-01T03:30:40.681Z,0
2017-03-01T03:31:40.600Z,0
2017-03-01T03:32:40.219Z,0
2017-03-01T03:33:40.641Z,0
2017-03-01T03:34:40.222Z,0
2017-03-01T03:35:40.236Z,0
2017-03-01T03:36:40.654Z,0
2017-03-01T03:37:40.660Z,0
2017-03-01T03:38:40.642Z,0
2017-03-01T03:39:40.663Z,0
2017-03-01T03:40:40.733Z,0
2017-03-01T03:41:40.683Z,0
2017-03-01T03:42:40.694Z,0
2017-03-01T03:43:40.668Z,0
2017-03-01T03:44:40.692Z,0
2017-03-01T03:45:40.708Z,0
2017-03-01T03:46:40.713Z,0
2017-03-01T03:47:40.737Z,0
2017-03-01T03:48:40.744Z,0
2017-03-01T03:49:40.376Z,0
2017-03-01T03:50:40.767Z,0
2017-03-01T03:51:40.812Z,0
2017-03-01T03:52:40.400Z,0
2017-03-01T03:53:40.805Z,0
2017-03-01T03:54:40.445Z,0
2017-03-01T03:55:40.837Z,0
2017-03-01T03:56:40.463Z,0
2017-03-01T03:57:40.870Z,0
2017-03-01T03:58:40.898Z,0
2017-03-01T03:59:40.506Z,0
2017-03-01T04:00:40.948Z,0
2017-03-01T04:01:40.908Z,0
2017-03-01T04:02:40.937Z,0
2017-03-01T04:03:40.964Z,0
2017-03-01T04:04:40.578Z,0
2017-03-01T04:05:40.968Z,0
2017-03-01T04:06:40.993Z,0
2017-03-01T04:07:41.019Z,0
2017-03-01T04:08:41.015Z,0
2017-03-01T04:09:41.029Z,0
2017-03-01T04:10:41.052Z,0
2017-03-01T04:11:40.662Z,0
2017-03-01T04:12:41.079Z,0
2017-03-01T04:13:41.101Z,0
2017-03-01T04:14:41.106Z,0
2017-03-01T04:15:41.118Z,0
2017-03-01T04:16:41.112Z,0
2017-03-01T04:17:41.176Z,0
2017-03-01T04:18:41.155Z,0
2017-03-01T04:19:41.188Z,0
2017-03-01T04:20:41.182Z,0
2017-03-01T04:21:41.198Z,0
2017-03-01T04:22:41.212Z,0
2017-03-01T04:23:40.827Z,0
2017-03-01T04:24:40.837Z,0
2017-03-01T04:25:40.849Z,0
2017-03-01T04:26:41.261Z,0
2017-03-01T04:27:41.282Z,0
2017-03-01T04:28:41.303Z,0
2017-03-01T04:29:40.913Z,0
2017-03-01T04:30:40.938Z,0
2017-03-01T04:31:41.038Z,0
2017-03-01T04:32:41.350Z,0
2017-03-01T04:33:40.599Z,0
2017-03-01T04:34:41.495Z,0
2017-03-01T04:35:41.376Z,0
2017-03-01T04:36:41.507Z,0
2017-03-01T04:37:41.541Z,0
2017-03-01T04:38:41.431Z,0
2017-03-01T04:39:41.564Z,0
2017-03-01T04:40:41.451Z,0
2017-03-01T04:41:41.501Z,0
2017-03-01T04:42:41.096Z,0
2017-03-01T04:43:41.102Z,0
2017-03-01T04:44:41.509Z,0
2017-03-01T04:45:41.120Z,0
2017-03-01T04:46:41.555Z,0
2017-03-01T04:47:41.569Z,0
2017-03-01T04:48:41.168Z,0
2017-03-01T04:49:41.598Z,0
2017-03-01T04:50:41.618Z,0
2017-03-01T04:51:41.830Z,0
2017-03-01T04:52:41.831Z,0
2017-03-01T04:53:41.338Z,0
2017-03-01T04:54:41.860Z,0
2017-03-01T04:55:41.468Z,0
2017-03-01T04:56:41.480Z,0
2017-03-01T04:57:41.881Z,0
2017-03-01T04:58:41.889Z,0
2017-03-01T04:59:41.835Z,0
2017-03-01T05:00:41.528Z,0
2017-03-01T05:01:41.919Z,0
2017-03-01T05:02:41.920Z,0
2017-03-01T05:03:41.941Z,0
2017-03-01T05:04:41.924Z,0
2017-03-01T05:05:41.427Z,0
2017-03-01T05:06:41.958Z,0
2017-03-01T05:07:41.926Z,0
2017-03-01T05:08:41.917Z,0
2017-03-01T05:09:41.953Z,0
2017-03-01T05:10:41.938Z,0
2017-03-01T05:11:41.941Z,0
2017-03-01T05:12:41.957Z,0
2017-03-01T05:13:41.959Z,0
2017-03-01T05:14:41.968Z,0
2017-03-01T05:15:41.970Z,0
2017-03-01T05:16:41.769Z,0
2017-03-01T05:17:41.968Z,0
2017-03-01T05:18:41.986Z,0
2017-03-01T05:19:41.997Z,0
2017-03-01T05:20:41.643Z,0
2017-03-01T05:21:42.021Z,0
2017-03-01T05:22:42.028Z,0
2017-03-01T05:23:42.062Z,0
2017-03-01T05:24:42.059Z,0
2017-03-01T05:25:42.076Z,0
2017-03-01T05:26:42.095Z,0
2017-03-01T05:27:42.104Z,0
2017-03-01T05:28:42.126Z,0
2017-03-01T05:29:42.122Z,0
2017-03-01T05:30:42.186Z,0
2017-03-01T05:31:42.157Z,0
2017-03-01T05:32:42.177Z,0
2017-03-01T05:33:42.200Z,0
2017-03-01T05:34:42.200Z,0
2017-03-01T05:35:42.323Z,0
2017-03-01T05:36:42.313Z,0
2017-03-01T05:37:42.347Z,0
2017-03-01T05:38:42.359Z,0
2017-03-01T05:39:42.381Z,0
2017-03-01T05:40:42.385Z,0
2017-03-01T05:41:42.419Z,0
2017-03-01T05:42:42.387Z,4
2017-03-01T05:43:42.320Z,4
2017-03-01T05:44:42.378Z,4
2017-03-01T05:45:42.343Z,4
2017-03-01T05:46:42.354Z,4
2017-03-01T05:47:42.378Z,4
2017-03-01T05:48:41.990Z,4
2017-03-01T05:49:42.395Z,4
2017-03-01T05:50:42.024Z,4
2017-03-01T05:51:42.540Z,4
2017-03-01T05:52:42.449Z,4
2017-03-01T05:53:42.065Z,4
2017-03-01T05:54:42.464Z,4
2017-03-01T05:55:42.476Z,4
2017-03-01T05:56:42.295Z,4
2017-03-01T05:57:42.608Z,4
2017-03-01T05:58:42.552Z,4
2017-03-01T05:59:42.609Z,4
2017-03-01T06:00:42.547Z,4
2017-03-01T06:01:42.163Z,4
2017-03-01T06:02:42.581Z,8
2017-03-01T06:03:42.579Z,12
2017-03-01T06:04:42.606Z,24
2017-03-01T06:05:42.657Z,32
2017-03-01T06:06:42.624Z,20
2017-03-01T06:07:42.649Z,12
2017-03-01T06:08:42.271Z,20
2017-03-01T06:09:42.673Z,28
2017-03-01T06:10:42.689Z,36
2017-03-01T06:11:42.344Z,40
2017-03-01T06:12:42.325Z,28
2017-03-01T06:13:42.350Z,28
2017-03-01T06:14:42.748Z,32
2017-03-01T06:15:42.747Z,24
2017-03-01T06:16:42.758Z,20
2017-03-01T06:17:42.775Z,20
2017-03-01T06:18:42.784Z,24
2017-03-01T06:19:42.813Z,40
2017-03-01T06:20:42.427Z,48
2017-03-01T06:21:43.005Z,32
2017-03-01T06:22:42.858Z,28
2017-03-01T06:23:42.865Z,24
2017-03-01T06:24:42.502Z,44
2017-03-01T06:25:42.998Z,88
2017-03-01T06:26:43.100Z,108
2017-03-01T06:27:42.518Z,112
2017-03-01T06:28:42.936Z,116
2017-03-01T06:29:42.947Z,116
2017-03-01T06:30:42.956Z,124
2017-03-01T06:31:42.981Z,116
2017-03-01T06:32:42.985Z,112
2017-03-01T06:33:43.035Z,124
2017-03-01T06:34:43.022Z,152
2017-03-01T06:35:43.015Z,152
2017-03-01T06:36:42.633Z,116
2017-03-01T06:37:43.059Z,100
2017-03-01T06:38:43.065Z,108
2017-03-01T06:39:42.688Z,148
2017-03-01T06:40:43.106Z,264
2017-03-01T06:41:43.113Z,264
2017-03-01T06:42:43.114Z,212
2017-03-01T06:43:43.135Z,216
2017-03-01T06:44:42.733Z,248
2017-03-01T06:45:43.163Z,232
2017-03-01T06:46:42.789Z,224
2017-03-01T06:47:42.779Z,284
2017-03-01T06:48:43.188Z,396
2017-03-01T06:49:43.204Z,396
2017-03-01T06:50:43.226Z,264
2017-03-01T06:51:43.229Z,200
2017-03-01T06:52:43.246Z,256
2017-03-01T06:53:42.858Z,220
2017-03-01T06:54:43.269Z,200
2017-03-01T06:55:43.292Z,180
2017-03-01T06:56:42.911Z,132
2017-03-01T06:57:43.396Z,264
2017-03-01T06:58:43.427Z,256
2017-03-01T06:59:43.444Z,276
2017-03-01T07:00:43.456Z,220
2017-03-01T07:01:43.437Z,256
2017-03-01T07:02:42.637Z,244
2017-03-01T07:03:43.434Z,268
2017-03-01T07:04:43.414Z,296
2017-03-01T07:05:43.417Z,288
2017-03-01T07:06:43.454Z,312
2017-03-01T07:07:43.607Z,372
2017-03-01T07:08:43.564Z,276
2017-03-01T07:09:43.490Z,304
2017-03-01T07:10:43.557Z,228
2017-03-01T07:11:43.517Z,196
2017-03-01T07:12:43.511Z,264
2017-03-01T07:13:43.590Z,240
2017-03-01T07:14:43.550Z,208
2017-03-01T07:15:43.577Z,184
2017-03-01T07:16:43.574Z,204
2017-03-01T07:17:43.585Z,328
2017-03-01T07:18:43.617Z,364
2017-03-01T07:19:43.715Z,288
2017-03-01T07:20:43.733Z,312
2017-03-01T07:21:43.767Z,304
2017-03-01T07:22:43.747Z,296
2017-03-01T07:23:43.666Z,328
2017-03-01T07:24:43.721Z,348
2017-03-01T07:25:43.691Z,392
2017-03-01T07:26:43.712Z,320
2017-03-01T07:27:43.848Z,332
2017-03-01T07:28:42.960Z,344
2017-03-01T07:29:43.368Z,476
2017-03-01T07:30:43.772Z,800
2017-03-01T07:31:43.767Z,784
2017-03-01T07:32:43.911Z,720
2017-03-01T07:33:43.923Z,584
2017-03-01T07:34:43.830Z,588
2017-03-01T07:35:43.853Z,548
2017-03-01T07:36:43.953Z,660
2017-03-01T07:37:43.855Z,864
2017-03-01T07:38:43.495Z,772
2017-03-01T07:39:44.018Z,916
2017-03-01T07:40:43.967Z,736
2017-03-01T07:41:43.918Z,724
2017-03-01T07:42:43.936Z,724
2017-03-01T07:43:43.954Z,728
2017-03-01T07:44:44.113Z,688
2017-03-01T07:45:43.601Z,752
2017-03-01T07:46:44.119Z,740
2017-03-01T07:47:43.998Z,708
2017-03-01T07:48:44.018Z,680
2017-03-01T07:49:44.018Z,700
2017-03-01T07:50:44.029Z,708
2017-03-01T07:51:44.058Z,688
2017-03-01T07:52:43.703Z,772
2017-03-01T07:53:43.712Z,684
2017-03-01T07:54:44.096Z,660
2017-03-01T07:55:43.715Z,848
2017-03-01T07:56:44.137Z,740
2017-03-01T07:57:44.158Z,712
2017-03-01T07:58:44.154Z,724
2017-03-01T07:59:44.186Z,704
2017-03-01T08:00:44.183Z,940
2017-03-01T08:01:44.193Z,944
2017-03-01T08:02:44.216Z,668
2017-03-01T08:03:44.217Z,672
2017-03-01T08:04:44.309Z,860
2017-03-01T08:05:44.369Z,864
2017-03-01T08:06:44.260Z,1020
2017-03-01T08:07:44.265Z,988
2017-03-01T08:08:44.015Z,1064
2017-03-01T08:09:44.296Z,1060
2017-03-01T08:10:44.474Z,1128
2017-03-01T08:11:44.550Z,980
2017-03-01T08:12:44.337Z,952
2017-03-01T08:13:44.471Z,928
2017-03-01T08:14:44.489Z,928
2017-03-01T08:15:44.557Z,928
2017-03-01T08:16:44.399Z,932
2017-03-01T08:17:44.427Z,772
2017-03-01T08:18:44.443Z,636
2017-03-01T08:19:44.445Z,804
2017-03-01T08:20:44.456Z,688
2017-03-01T08:21:44.572Z,564
2017-03-01T08:22:44.497Z,532
2017-03-01T08:23:44.497Z,560
2017-03-01T08:24:44.504Z,656
2017-03-01T08:25:44.566Z,708
2017-03-01T08:26:44.262Z,792
2017-03-01T08:27:44.567Z,892
2017-03-01T08:28:44.181Z,1012
2017-03-01T08:29:44.582Z,1080
2017-03-01T08:30:44.619Z,1140
2017-03-01T08:31:44.638Z,1140
2017-03-01T08:32:44.635Z,1068
2017-03-01T08:33:44.269Z,988
2017-03-01T08:34:44.652Z,980
2017-03-01T08:35:44.669Z,972
2017-03-01T08:36:44.676Z,948
2017-03-01T08:37:44.705Z,1060
2017-03-01T08:38:44.731Z,1080
2017-03-01T08:39:44.720Z,1088
2017-03-01T08:40:44.753Z,1128
2017-03-01T08:41:44.763Z,1060
2017-03-01T08:42:44.474Z,1084
2017-03-01T08:43:43.988Z,1184
2017-03-01T08:44:44.784Z,1192
2017-03-01T08:45:44.815Z,1116
2017-03-01T08:46:44.035Z,916
2017-03-01T08:47:44.505Z,836
2017-03-01T08:48:44.846Z,712
2017-03-01T08:49:44.865Z,636
2017-03-01T08:50:44.884Z,648
2017-03-01T08:51:44.885Z,636
2017-03-01T08:52:45.130Z,612
2017-03-01T08:53:44.641Z,644
2017-03-01T08:54:44.954Z,816
2017-03-01T08:55:44.955Z,1060
2017-03-01T08:56:45.165Z,1124
2017-03-01T08:57:45.071Z,1028
2017-03-01T08:58:44.320Z,956
2017-03-01T08:59:45.014Z,824
2017-03-01T09:00:45.020Z,672
2017-03-01T09:01:45.104Z,656
2017-03-01T09:02:45.068Z,660
2017-03-01T09:03:45.068Z,644
2017-03-01T09:04:45.092Z,732
2017-03-01T09:05:45.102Z,848
2017-03-01T09:06:45.122Z,1156
2017-03-01T09:07:45.115Z,1192
2017-03-01T09:08:44.851Z,1148
2017-03-01T09:09:45.250Z,940
2017-03-01T09:10:44.771Z,904
2017-03-01T09:11:45.188Z,696
2017-03-01T09:12:45.204Z,588
2017-03-01T09:13:45.343Z,636
2017-03-01T09:14:45.237Z,744
2017-03-01T09:15:45.267Z,924
2017-03-01T09:16:45.289Z,1056
2017-03-01T09:17:45.272Z,1396
2017-03-01T09:18:45.067Z,1476
2017-03-01T09:19:45.308Z,1444
2017-03-01T09:20:45.424Z,1496
2017-03-01T09:21:45.493Z,1440
2017-03-01T09:22:45.374Z,1312
2017-03-01T09:23:45.476Z,1012
2017-03-01T09:24:45.382Z,808
2017-03-01T09:25:45.387Z,888
2017-03-01T09:26:45.409Z,896
2017-03-01T09:27:45.545Z,1016
2017-03-01T09:28:45.573Z,1036
2017-03-01T09:29:45.584Z,1016
2017-03-01T09:30:45.057Z,816
2017-03-01T09:31:45.478Z,1040
2017-03-01T09:32:45.485Z,984
2017-03-01T09:33:45.497Z,860
2017-03-01T09:34:45.123Z,728
2017-03-01T09:35:45.621Z,740
2017-03-01T09:36:45.599Z,852
2017-03-01T09:37:45.175Z,712
2017-03-01T09:38:45.614Z,664
2017-03-01T09:39:45.675Z,720
2017-03-01T09:40:45.623Z,604
2017-03-01T09:41:45.740Z,652
2017-03-01T09:42:45.638Z,796
2017-03-01T09:43:45.253Z,772
2017-03-01T09:44:45.768Z,1012
2017-03-01T09:45:45.792Z,984
2017-03-01T09:46:45.692Z,1112
2017-03-01T09:47:45.717Z,1260
2017-03-01T09:48:45.722Z,820
2017-03-01T09:49:45.738Z,604
2017-03-01T09:50:45.762Z,608
2017-03-01T09:51:45.868Z,748
2017-03-01T09:52:45.791Z,624
2017-03-01T09:53:45.797Z,948
2017-03-01T09:54:45.804Z,932
2017-03-01T09:55:45.827Z,1072
2017-03-01T09:56:45.849Z,1272
2017-03-01T09:57:45.859Z,1488
2017-03-01T09:58:45.987Z,1576
2017-03-01T09:59:45.884Z,1864
2017-03-01T10:00:45.912Z,1552
2017-03-01T10:01:45.925Z,860
2017-03-01T10:02:46.020Z,1068
2017-03-01T10:03:45.953Z,1160
2017-03-01T10:04:45.970Z,1180
2017-03-01T10:05:45.978Z,1324
2017-03-01T10:06:45.991Z,1192
2017-03-01T10:07:46.014Z,1112
2017-03-01T10:08:46.030Z,1280
2017-03-01T10:09:46.041Z,1292
2017-03-01T10:10:46.159Z,1316
2017-03-01T10:11:45.673Z,1224
2017-03-01T10:12:45.806Z,1268
2017-03-01T10:13:46.188Z,1304
2017-03-01T10:14:46.198Z,1296
2017-03-01T10:15:46.245Z,1440
2017-03-01T10:16:46.139Z,1580
2017-03-01T10:17:46.282Z,1588
2017-03-01T10:18:46.179Z,1632
2017-03-01T10:19:45.909Z,1464
2017-03-01T10:20:45.917Z,1432
2017-03-01T10:21:45.925Z,1668
2017-03-01T10:22:46.244Z,1784
2017-03-01T10:23:46.308Z,1808
2017-03-01T10:24:46.268Z,1516
2017-03-01T10:25:46.291Z,1108
2017-03-01T10:26:46.361Z,820
2017-03-01T10:27:46.300Z,732
2017-03-01T10:28:46.325Z,840
2017-03-01T10:29:46.345Z,924
2017-03-01T10:30:46.391Z,816
2017-03-01T10:31:46.397Z,912
2017-03-01T10:32:45.993Z,832
2017-03-01T10:33:46.415Z,792
2017-03-01T10:34:46.421Z,712
2017-03-01T10:35:45.640Z,880
2017-03-01T10:36:46.187Z,832
2017-03-01T10:37:46.476Z,856
2017-03-01T10:38:46.469Z,864
2017-03-01T10:39:46.097Z,1000
2017-03-01T10:40:46.559Z,1272
2017-03-01T10:41:46.532Z,1484
2017-03-01T10:42:46.543Z,1384
2017-03-01T10:43:46.577Z,1240
2017-03-01T10:44:46.186Z,1608
2017-03-01T10:45:46.690Z,1536
2017-03-01T10:46:46.698Z,1316
2017-03-01T10:47:45.920Z,976
2017-03-01T10:48:46.631Z,928
2017-03-01T10:49:46.657Z,892
2017-03-01T10:50:46.678Z,960
2017-03-01T10:51:46.693Z,1092
2017-03-01T10:52:46.705Z,984
2017-03-01T10:53:46.712Z,976
2017-03-01T10:54:46.711Z,1416
2017-03-01T10:55:46.742Z,1796
2017-03-01T10:56:46.746Z,1492
2017-03-01T10:57:46.768Z,1308
2017-03-01T10:58:46.512Z,1216
2017-03-01T10:59:46.909Z,1112
2017-03-01T11:00:46.919Z,1168
2017-03-01T11:01:46.927Z,888
2017-03-01T11:02:46.978Z,1024
2017-03-01T11:03:46.947Z,556
2017-03-01T11:04:47.011Z,572
2017-03-01T11:05:46.924Z,744
2017-03-01T11:06:46.927Z,632
2017-03-01T11:07:46.937Z,688
2017-03-01T11:08:46.950Z,848
2017-03-01T11:09:46.960Z,528
2017-03-01T11:10:46.978Z,504
2017-03-01T11:11:46.707Z,652
2017-03-01T11:12:47.003Z,936
2017-03-01T11:13:47.012Z,1292
2017-03-01T11:14:47.024Z,1368
2017-03-01T11:15:46.643Z,1260
2017-03-01T11:16:47.074Z,1572
2017-03-01T11:17:47.079Z,1132
2017-03-01T11:18:47.084Z,1744
2017-03-01T11:19:47.101Z,1812
2017-03-01T11:20:47.128Z,1348
2017-03-01T11:21:47.259Z,1264
2017-03-01T11:22:47.155Z,1180
2017-03-01T11:23:46.881Z,1036
2017-03-01T11:24:47.373Z,992
2017-03-01T11:25:46.792Z,1188
2017-03-01T11:26:47.221Z,1140
2017-03-01T11:27:47.229Z,816
2017-03-01T11:28:47.260Z,944
2017-03-01T11:29:47.263Z,940
2017-03-01T11:30:46.867Z,1272
2017-03-01T11:31:47.448Z,1144
2017-03-01T11:32:47.360Z,900
2017-03-01T11:33:47.316Z,1124
2017-03-01T11:34:47.334Z,1108
2017-03-01T11:35:46.973Z,1244
2017-03-01T11:36:47.369Z,1432
2017-03-01T11:37:46.988Z,1336
2017-03-01T11:38:47.403Z,1064
2017-03-01T11:39:47.406Z,1212
2017-03-01T11:40:47.431Z,1144
2017-03-01T11:41:47.472Z,1452
2017-03-01T11:42:47.455Z,1552
2017-03-01T11:43:47.468Z,1684
2017-03-01T11:44:47.483Z,1064
2017-03-01T11:45:47.514Z,2136
2017-03-01T11:46:47.524Z,2140
2017-03-01T11:47:47.555Z,2184
2017-03-01T11:48:47.543Z,1928
2017-03-01T11:49:47.585Z,1836
2017-03-01T11:50:47.594Z,1436
2017-03-01T11:51:47.615Z,1192
2017-03-01T11:52:47.613Z,1296
2017-03-01T11:53:47.241Z,1240
2017-03-01T11:54:46.954Z,992
2017-03-01T11:55:47.271Z,900
2017-03-01T11:56:46.899Z,616
2017-03-01T11:57:47.292Z,664
2017-03-01T11:58:47.313Z,684
2017-03-01T11:59:47.322Z,800
2017-03-01T12:00:47.857Z,1000
2017-03-01T12:01:47.758Z,944
2017-03-01T12:02:47.832Z,744
2017-03-01T12:03:47.804Z,776
2017-03-01T12:04:47.907Z,740
2017-03-01T12:05:47.525Z,496
2017-03-01T12:06:47.437Z,528
2017-03-01T12:07:47.049Z,500
2017-03-01T12:08:47.864Z,336
2017-03-01T12:09:47.496Z,524
2017-03-01T12:10:47.895Z,1208
2017-03-01T12:11:47.979Z,1152
2017-03-01T12:12:47.935Z,1496
2017-03-01T12:13:47.966Z,1260
2017-03-01T12:14:47.793Z,1300
2017-03-01T12:15:47.691Z,1508
2017-03-01T12:16:48.108Z,1488
2017-03-01T12:17:48.027Z,1664
2017-03-01T12:18:48.020Z,1956
2017-03-01T12:19:48.049Z,1212
2017-03-01T12:20:48.057Z,820
2017-03-01T12:21:48.082Z,1348
2017-03-01T12:22:48.092Z,1828
2017-03-01T12:23:47.711Z,1412
2017-03-01T12:24:48.248Z,928
2017-03-01T12:25:48.296Z,1100
2017-03-01T12:26:48.306Z,1032
2017-03-01T12:27:48.314Z,1552
2017-03-01T12:28:48.315Z,1464
2017-03-01T12:29:48.329Z,1172
2017-03-01T12:30:48.327Z,1076
2017-03-01T12:31:48.348Z,712
2017-03-01T12:32:48.343Z,1568
2017-03-01T12:33:48.358Z,1760
2017-03-01T12:34:48.354Z,996
2017-03-01T12:35:48.364Z,1148
2017-03-01T12:36:48.369Z,2212
2017-03-01T12:37:48.384Z,2196
2017-03-01T12:38:48.351Z,1500
2017-03-01T12:39:48.154Z,1624
2017-03-01T12:40:48.383Z,924
2017-03-01T12:41:48.385Z,564
2017-03-01T12:42:48.411Z,412
2017-03-01T12:43:48.423Z,588
2017-03-01T12:44:48.461Z,1196
2017-03-01T12:45:48.204Z,1156
2017-03-01T12:46:48.201Z,1420
2017-03-01T12:47:48.210Z,1072
2017-03-01T12:48:48.531Z,812
2017-03-01T12:49:48.118Z,1012
2017-03-01T12:50:48.141Z,1340
2017-03-01T12:51:47.880Z,1340
2017-03-01T12:52:48.172Z,1292
2017-03-01T12:53:48.569Z,1212
2017-03-01T12:54:48.209Z,1076
2017-03-01T12:55:48.631Z,1036
2017-03-01T12:56:48.311Z,928
2017-03-01T12:57:48.664Z,800
2017-03-01T12:58:48.276Z,644
2017-03-01T12:59:48.281Z,624
2017-03-01T13:00:48.709Z,524
2017-03-01T13:01:48.321Z,552
2017-03-01T13:02:48.338Z,664
2017-03-01T13:03:48.339Z,860
2017-03-01T13:04:48.362Z,876
2017-03-01T13:05:48.388Z,1148
2017-03-01T13:06:48.795Z,1564
2017-03-01T13:07:48.816Z,1688
2017-03-01T13:08:48.419Z,1712
2017-03-01T13:09:48.846Z,1488
2017-03-01T13:10:48.858Z,1128
2017-03-01T13:11:48.871Z,1012
2017-03-01T13:12:48.486Z,864
2017-03-01T13:13:48.898Z,656
2017-03-01T13:14:48.952Z,964
2017-03-01T13:15:48.924Z,1272
2017-03-01T13:16:48.954Z,916
2017-03-01T13:17:48.971Z,968
2017-03-01T13:18:48.988Z,1384
2017-03-01T13:19:48.595Z,1224
2017-03-01T13:20:49.016Z,1056
2017-03-01T13:21:48.622Z,1420
2017-03-01T13:22:48.650Z,1416
2017-03-01T13:23:48.668Z,1564
2017-03-01T13:24:48.690Z,1324
2017-03-01T13:25:48.692Z,2056
2017-03-01T13:26:48.707Z,2192
2017-03-01T13:27:49.131Z,1876
2017-03-01T13:28:48.734Z,948
2017-03-01T13:29:48.761Z,576
2017-03-01T13:30:49.178Z,516
2017-03-01T13:31:48.811Z,468
2017-03-01T13:32:48.807Z,480
2017-03-01T13:33:49.229Z,500
2017-03-01T13:34:48.442Z,480
2017-03-01T13:35:49.245Z,488
2017-03-01T13:36:48.495Z,536
2017-03-01T13:37:48.890Z,512
2017-03-01T13:38:48.500Z,600
2017-03-01T13:39:49.315Z,984
2017-03-01T13:40:48.938Z,864
2017-03-01T13:41:49.349Z,548
2017-03-01T13:42:48.979Z,544
2017-03-01T13:43:49.376Z,640
2017-03-01T13:44:49.408Z,616
2017-03-01T13:45:49.036Z,572
2017-03-01T13:46:49.428Z,584
2017-03-01T13:47:49.040Z,580
2017-03-01T13:48:49.462Z,552
2017-03-01T13:49:49.464Z,536
2017-03-01T13:50:49.511Z,524
2017-03-01T13:51:49.501Z,508
2017-03-01T13:52:49.518Z,504
2017-03-01T13:53:49.540Z,588
2017-03-01T13:54:49.555Z,540
2017-03-01T13:55:49.580Z,548
2017-03-01T13:56:49.584Z,596
2017-03-01T13:57:49.602Z,824
2017-03-01T13:58:49.628Z,472
2017-03-01T13:59:49.653Z,460
2017-03-01T14:00:49.647Z,496
2017-03-01T14:01:49.696Z,704
2017-03-01T14:02:49.707Z,504
2017-03-01T14:03:49.722Z,544
2017-03-01T14:04:49.724Z,608
2017-03-01T14:05:49.740Z,1328